createdAt,value
2019-04-03T00:01:48.763Z,11.63
2019-04-03T00:06:58.462Z,11.51
2019-04-03T00:09:28.530Z,11.44
2019-04-03T00:11:58.637Z,11.48
2019-04-03T00:14:28.735Z,11.49
2019-04-03T00:16:58.664Z,11.49
2019-04-03T00:19:29.006Z,11.46
2019-04-03T00:21:59.034Z,11.29
2019-04-03T00:27:08.442Z,11.23
2019-04-03T00:29:38.496Z,11.22
2019-04-03T00:32:08.544Z,11.21
2019-04-03T00:34:38.592Z,11.17
2019-04-03T00:37:08.655Z,11.14
2019-04-03T00:42:18.436Z,11.16
2019-04-03T00:44:48.550Z,11.10
2019-04-03T00:47:18.731Z,11.03
2019-04-03T00:52:28.156Z,11.01
2019-04-03T00:54:58.205Z,10.99
2019-04-03T00:57:28.274Z,10.94
2019-04-03T00:59:58.544Z,10.90
2019-04-03T01:05:08.438Z,10.89
2019-04-03T01:10:17.776Z,10.74
2019-04-03T01:12:48.069Z,10.77
2019-04-03T01:15:18.148Z,10.75
2019-04-03T01:17:48.420Z,10.73
2019-04-03T01:20:18.757Z,10.72
2019-04-03T01:22:48.786Z,10.75
2019-04-03T01:25:19.176Z,10.74
2019-04-03T01:30:28.857Z,10.68
2019-04-03T01:32:58.895Z,10.65
2019-04-03T01:35:28.930Z,10.62
2019-04-03T01:37:58.942Z,10.64
2019-04-03T01:43:08.349Z,10.63
2019-04-03T01:45:38.392Z,10.63
2019-04-03T01:48:08.412Z,10.60
2019-04-03T01:50:38.479Z,10.59
2019-04-03T01:53:08.635Z,10.69
2019-04-03T01:55:38.554Z,10.57
2019-04-03T01:58:08.584Z,10.52
2019-04-03T02:00:38.803Z,10.52
2019-04-03T02:03:10.289Z,10.38
2019-04-03T02:08:18.136Z,10.34
2019-04-03T02:10:48.934Z,10.30
2019-04-03T02:15:57.531Z,10.18
2019-04-03T02:18:27.564Z,10.18
2019-04-03T02:20:58.184Z,10.21
2019-04-03T02:26:07.740Z,10.16
2019-04-03T02:31:19.268Z,10.01
2019-04-03T02:33:47.235Z,9.94
2019-04-03T02:38:56.906Z,9.99
2019-04-03T02:44:06.322Z,10.04
2019-04-03T02:49:16.411Z,9.96
2019-04-03T02:59:44.082Z,9.92
2019-04-03T03:02:14.060Z,10.00
2019-04-03T03:04:44.084Z,9.90
2019-04-03T03:09:53.842Z,9.74
2019-04-03T03:12:24.989Z,9.69
2019-04-03T03:14:53.912Z,10.04
2019-04-03T03:20:06.926Z,9.81
2019-04-03T03:25:12.950Z,9.85
2019-04-03T03:30:38.884Z,10.08
2019-04-03T03:33:19.450Z,10.00
2019-04-03T03:38:02.129Z,9.95
2019-04-03T03:40:32.587Z,9.86
2019-04-03T03:45:41.885Z,9.87
2019-04-03T03:48:11.992Z,9.87
2019-04-03T03:53:21.310Z,9.82
2019-04-03T03:55:51.338Z,9.74
2019-04-03T04:01:01.189Z,9.67
2019-04-03T04:03:31.038Z,9.64
2019-04-03T04:06:01.123Z,9.78
2019-04-03T04:08:31.704Z,9.79
2019-04-03T04:11:01.520Z,9.68
2019-04-03T04:16:10.939Z,9.70
2019-04-03T04:21:20.286Z,9.75
2019-04-03T04:23:50.682Z,9.61
2019-04-03T04:26:20.708Z,9.54
2019-04-03T04:28:50.735Z,9.64
2019-04-03T04:31:20.779Z,9.69
2019-04-03T04:39:09.873Z,9.78
2019-04-03T04:44:19.266Z,9.73
2019-04-03T04:49:28.912Z,9.70
2019-04-03T04:54:42.629Z,9.83
2019-04-03T04:59:48.526Z,9.88
2019-04-03T05:02:19.887Z,9.91
2019-04-03T05:04:48.422Z,9.86
2019-04-03T05:07:18.461Z,9.97
2019-04-03T05:09:48.552Z,9.95
2019-04-03T05:12:18.628Z,9.86
2019-04-03T05:14:49.471Z,9.98
2019-04-03T05:19:58.933Z,9.87
2019-04-03T05:22:29.444Z,9.87
2019-04-03T05:27:38.377Z,9.81
2019-04-03T05:32:48.241Z,9.78
2019-04-03T05:35:18.569Z,9.85
2019-04-03T05:37:50.355Z,9.89
2019-04-03T05:40:18.607Z,9.86
2019-04-03T05:42:48.676Z,9.93
2019-04-03T05:45:18.722Z,9.96
2019-04-03T05:50:28.691Z,9.99
2019-04-03T05:52:58.735Z,9.98
2019-04-03T05:58:08.127Z,10.09
2019-04-03T06:00:38.820Z,10.15
2019-04-03T06:03:08.896Z,10.26
2019-04-03T06:05:39.046Z,10.24
2019-04-03T06:08:08.884Z,10.33
2019-04-03T06:10:38.900Z,10.36
2019-04-03T06:13:08.975Z,10.33
2019-04-03T06:15:38.978Z,10.39
2019-04-03T06:18:09.019Z,10.49
2019-04-03T06:20:39.049Z,10.58
2019-04-03T06:23:09.148Z,10.57
2019-04-03T06:25:39.294Z,10.62
2019-04-03T06:28:09.190Z,10.73
2019-04-03T06:30:39.404Z,10.73
2019-04-03T06:33:09.530Z,10.71
2019-04-03T06:35:39.552Z,10.74
2019-04-03T06:38:09.596Z,10.76
2019-04-03T06:40:39.957Z,10.86
2019-04-03T06:43:09.988Z,10.88
2019-04-03T06:45:43.033Z,10.91
2019-04-03T06:48:10.069Z,10.85
2019-04-03T06:50:40.190Z,10.90
2019-04-03T06:53:10.136Z,10.94
2019-04-03T06:58:20.103Z,11.10
2019-04-03T07:00:50.332Z,11.05
2019-04-03T07:03:22.532Z,11.11
2019-04-03T07:05:50.559Z,11.05
2019-04-03T07:08:30.066Z,11.02
2019-04-03T07:10:55.111Z,10.93
2019-04-03T07:13:21.058Z,11.00
2019-04-03T07:15:50.698Z,11.00
2019-04-03T07:18:21.048Z,10.98
2019-04-03T07:20:52.222Z,11.04
2019-04-03T07:23:21.116Z,11.10
2019-04-03T07:25:51.525Z,11.20
2019-04-03T07:28:22.033Z,11.20
2019-04-03T07:30:53.612Z,11.20
2019-04-03T07:33:22.192Z,11.17
2019-04-03T07:35:52.198Z,11.17
2019-04-03T07:38:22.735Z,11.23
2019-04-03T07:40:52.487Z,11.23
2019-04-03T07:43:22.677Z,11.29
2019-04-03T07:48:33.308Z,11.34
2019-04-03T07:51:02.409Z,11.42
2019-04-03T07:53:32.438Z,11.43
2019-04-03T07:56:02.894Z,11.48
2019-04-03T07:58:32.787Z,11.50
2019-04-03T08:01:03.193Z,11.60
2019-04-03T08:03:33.228Z,11.54
2019-04-03T08:06:04.377Z,11.53
2019-04-03T08:08:33.309Z,11.54
2019-04-03T08:11:03.671Z,11.65
2019-04-03T08:13:33.979Z,11.69
2019-04-03T08:16:04.001Z,11.75
2019-04-03T08:18:34.502Z,11.85
2019-04-03T08:21:04.336Z,11.92
2019-04-03T08:23:37.066Z,11.95
2019-04-03T08:26:04.982Z,11.99
2019-04-03T08:28:35.020Z,12.02
2019-04-03T08:31:05.055Z,12.05
2019-04-03T08:33:35.089Z,12.07
2019-04-03T08:36:07.708Z,12.14
2019-04-03T08:38:35.277Z,12.32
2019-04-03T08:41:05.279Z,12.26
2019-04-03T08:43:35.557Z,12.29
2019-04-03T08:46:05.390Z,12.19
2019-04-03T08:48:35.331Z,12.18
2019-04-03T08:51:05.384Z,12.17
2019-04-03T08:53:38.535Z,12.21
2019-04-03T08:58:46.026Z,12.22
2019-04-03T09:01:14.921Z,12.27
2019-04-03T09:03:45.846Z,12.37
2019-04-03T09:06:15.269Z,12.40
2019-04-03T09:08:45.626Z,12.52
2019-04-03T09:11:15.650Z,12.67
2019-04-03T09:13:45.683Z,12.86
2019-04-03T09:16:16.044Z,13.12
2019-04-03T09:18:46.410Z,13.02
2019-04-03T09:21:16.427Z,13.04
2019-04-03T09:23:46.709Z,13.10
2019-04-03T09:26:16.739Z,13.17
2019-04-03T09:28:47.073Z,13.33
2019-04-03T09:31:18.943Z,13.42
2019-04-03T09:39:06.197Z,13.42
2019-04-03T09:44:15.801Z,13.63
2019-04-03T09:49:24.959Z,13.36
2019-04-03T09:54:34.363Z,13.07
2019-04-03T09:59:44.050Z,13.13
2019-04-03T10:02:13.818Z,13.09
2019-04-03T10:04:43.854Z,13.11
2019-04-03T10:09:54.496Z,13.44
2019-04-03T10:12:23.876Z,13.42
2019-04-03T10:14:53.618Z,13.34
2019-04-03T10:20:03.003Z,13.46
2019-04-03T10:22:33.033Z,13.30
2019-04-03T10:25:05.454Z,13.28
2019-04-03T10:30:12.790Z,13.34
2019-04-03T10:32:42.834Z,13.73
2019-04-03T10:35:13.043Z,14.02
2019-04-03T10:37:45.690Z,14.12
2019-04-03T10:40:13.111Z,14.07
2019-04-03T10:42:42.991Z,13.99
2019-04-03T10:47:55.703Z,14.21
2019-04-03T10:50:23.051Z,14.09
2019-04-03T10:52:53.203Z,14.07
2019-04-03T10:55:23.589Z,14.10
2019-04-03T10:57:53.288Z,14.03
2019-04-03T11:00:25.025Z,14.02
2019-04-03T11:02:53.367Z,14.27
2019-04-03T11:05:23.403Z,14.18
2019-04-03T11:07:53.449Z,14.16
2019-04-03T11:10:24.890Z,14.08
2019-04-03T11:12:53.518Z,14.21
2019-04-03T11:15:23.854Z,14.10
2019-04-03T11:17:53.872Z,14.09
2019-04-03T11:20:24.207Z,14.12
2019-04-03T11:23:04.045Z,14.16
2019-04-03T11:25:25.024Z,14.26
2019-04-03T11:27:55.094Z,14.38
2019-04-03T11:30:25.521Z,14.17
2019-04-03T11:32:55.017Z,14.42
2019-04-03T11:35:25.065Z,14.18
2019-04-03T11:37:55.444Z,14.25
2019-04-03T11:40:25.950Z,14.32
2019-04-03T11:42:55.528Z,14.17
2019-04-03T11:45:25.578Z,13.87
2019-04-03T11:47:55.897Z,13.91
2019-04-03T11:50:25.937Z,13.91
2019-04-03T11:52:55.979Z,13.82
2019-04-03T11:55:26.028Z,13.80
2019-04-03T12:00:35.630Z,13.65
2019-04-03T12:03:05.606Z,13.90
2019-04-03T12:05:35.499Z,13.85
2019-04-03T12:08:05.551Z,13.84
2019-04-03T12:10:35.876Z,13.87
2019-04-03T12:13:05.917Z,13.98
2019-04-03T12:15:35.991Z,14.28
2019-04-03T12:18:06.485Z,14.28
2019-04-03T12:20:36.431Z,14.33
2019-04-03T12:23:06.166Z,14.32
2019-04-03T12:25:38.274Z,14.30
2019-04-03T12:28:07.333Z,14.12
2019-04-03T12:30:36.834Z,14.24
2019-04-03T12:33:06.799Z,14.40
2019-04-03T12:35:36.560Z,14.82
2019-04-03T12:38:06.861Z,14.81
2019-04-03T12:40:36.980Z,14.70
2019-04-03T12:43:07.019Z,14.58
2019-04-03T12:48:17.375Z,15.00
2019-04-03T12:50:47.092Z,15.21
2019-04-03T12:53:17.331Z,15.34
2019-04-03T12:55:47.748Z,15.40
2019-04-03T12:58:17.893Z,15.31
2019-04-03T13:00:48.074Z,15.05
2019-04-03T13:03:18.044Z,15.17
2019-04-03T13:05:49.114Z,15.07
2019-04-03T13:08:19.600Z,15.07
2019-04-03T13:10:49.085Z,14.86
2019-04-03T13:13:18.200Z,14.79
2019-04-03T13:15:48.549Z,14.84
2019-04-03T13:18:18.847Z,15.00
2019-04-03T13:20:48.805Z,15.18
2019-04-03T13:23:18.643Z,15.22
2019-04-03T13:25:48.970Z,15.24
2019-04-03T13:28:18.728Z,15.08
2019-04-03T13:30:49.444Z,15.10
2019-04-03T13:33:19.083Z,15.27
2019-04-03T13:35:49.566Z,15.32
2019-04-03T13:38:19.686Z,15.36
2019-04-03T13:40:49.569Z,15.51
2019-04-03T13:43:21.564Z,15.54
2019-04-03T13:45:50.064Z,15.81
2019-04-03T13:50:59.452Z,15.98
2019-04-03T13:53:29.861Z,15.98
2019-04-03T13:56:00.050Z,15.77
2019-04-03T13:58:29.801Z,15.77
2019-04-03T14:01:02.799Z,16.03
2019-04-03T14:03:30.232Z,16.12
2019-04-03T14:06:00.342Z,16.07
2019-04-03T14:08:30.301Z,15.87
2019-04-03T14:11:00.436Z,15.70
2019-04-03T14:13:30.369Z,15.51
2019-04-03T14:16:00.699Z,15.51
2019-04-03T14:18:30.960Z,15.46
2019-04-03T14:21:01.320Z,15.80
2019-04-03T14:23:34.142Z,15.64
2019-04-03T14:26:05.242Z,15.77
2019-04-03T14:28:33.275Z,15.88
2019-04-03T14:31:01.994Z,15.83
2019-04-03T14:33:41.830Z,15.74
2019-04-03T14:36:02.439Z,15.93
2019-04-03T14:38:33.040Z,16.06
2019-04-03T14:41:02.104Z,15.97
2019-04-03T14:43:34.033Z,16.20
2019-04-03T14:46:02.791Z,15.96
2019-04-03T14:48:32.871Z,15.94
2019-04-03T14:51:06.074Z,15.91
2019-04-03T14:53:33.295Z,16.30
2019-04-03T14:56:03.345Z,16.23
2019-04-03T14:58:33.808Z,16.00
2019-04-03T15:01:03.496Z,15.97
2019-04-03T15:03:34.332Z,15.99
2019-04-03T15:06:03.885Z,16.05
2019-04-03T15:08:33.949Z,15.89
2019-04-03T15:11:04.506Z,15.94
2019-04-03T15:13:34.395Z,15.98
2019-04-03T15:16:04.422Z,15.86
2019-04-03T15:18:34.514Z,15.91
2019-04-03T15:21:04.515Z,15.86
2019-04-03T15:23:39.648Z,15.61
2019-04-03T15:26:04.916Z,15.59
2019-04-03T15:28:35.212Z,15.45
2019-04-03T15:31:05.426Z,15.46
2019-04-03T15:33:35.684Z,15.59
2019-04-03T15:36:05.786Z,15.82
2019-04-03T15:38:36.112Z,15.76
2019-04-03T15:43:46.603Z,15.55
2019-04-03T15:46:15.516Z,15.66
2019-04-03T15:48:45.569Z,15.99
2019-04-03T15:51:15.747Z,15.89
2019-04-03T15:53:46.064Z,15.89
2019-04-03T15:56:16.095Z,15.79
2019-04-03T15:58:46.466Z,15.88
2019-04-03T16:01:16.180Z,15.76
2019-04-03T16:03:48.827Z,15.68
2019-04-03T16:06:16.609Z,15.61
2019-04-03T16:14:06.141Z,15.46
2019-04-03T16:19:15.521Z,15.27
2019-04-03T16:21:45.828Z,15.22
2019-04-03T16:24:15.930Z,15.25
2019-04-03T16:26:46.255Z,15.03
2019-04-03T16:29:16.613Z,15.00
2019-04-03T16:31:47.170Z,15.06
2019-04-03T16:34:17.335Z,14.80
2019-04-03T16:36:48.747Z,14.53
2019-04-03T16:39:17.971Z,14.54
2019-04-03T16:41:47.732Z,14.51
2019-04-03T16:44:18.001Z,14.29
2019-04-03T16:46:47.845Z,14.07
2019-04-03T16:49:17.880Z,14.04
2019-04-03T16:51:48.250Z,14.03
2019-04-03T16:54:18.947Z,13.78
2019-04-03T16:56:49.992Z,13.82
2019-04-03T16:59:18.769Z,13.59
2019-04-03T17:01:48.799Z,13.51
2019-04-03T17:04:26.946Z,13.62
2019-04-03T17:06:49.580Z,13.73
2019-04-03T17:09:19.633Z,13.60
2019-04-03T17:14:28.656Z,13.13
2019-04-03T17:16:58.694Z,12.98
2019-04-03T17:19:28.737Z,12.89
2019-04-03T17:24:42.788Z,12.74
2019-04-03T17:27:08.440Z,12.68
2019-04-03T17:29:38.661Z,12.71
2019-04-03T17:32:09.682Z,12.60
2019-04-03T17:34:42.024Z,12.93
2019-04-03T17:37:09.328Z,12.63
2019-04-03T17:39:39.752Z,12.55
2019-04-03T17:42:09.789Z,12.50
2019-04-03T17:44:40.191Z,12.78
2019-04-03T17:47:10.235Z,12.70
2019-04-03T17:49:40.804Z,12.41
2019-04-03T17:52:10.845Z,12.22
2019-04-03T17:54:41.274Z,12.11
2019-04-03T17:57:11.912Z,12.07
2019-04-03T17:59:41.656Z,12.11
2019-04-03T18:02:11.705Z,11.98
2019-04-03T18:04:41.783Z,11.87
2019-04-03T18:07:12.213Z,11.83
2019-04-03T18:09:42.132Z,11.78
2019-04-03T18:12:11.884Z,11.76
2019-04-03T18:14:41.942Z,11.66
2019-04-03T18:17:12.343Z,11.63
2019-04-03T18:19:42.711Z,11.59
2019-04-03T18:22:12.816Z,11.44
2019-04-03T18:27:22.846Z,11.25
2019-04-03T18:29:52.895Z,11.21
2019-04-03T18:43:00.496Z,10.96
2019-04-03T18:45:30.535Z,10.95
2019-04-03T18:48:00.853Z,10.92
2019-04-03T18:53:10.571Z,11.05
2019-04-03T18:55:40.621Z,10.96
2019-04-03T18:58:10.655Z,10.95
2019-04-03T19:00:40.976Z,11.07
2019-04-03T19:03:11.021Z,10.87
2019-04-03T19:05:42.803Z,10.88
2019-04-03T19:08:13.448Z,11.41
2019-04-03T19:13:20.917Z,11.04
2019-04-03T19:15:51.308Z,10.97
2019-04-03T19:18:21.342Z,11.10
2019-04-03T19:20:51.361Z,11.00
2019-04-03T19:26:00.777Z,10.95
2019-04-03T19:31:10.501Z,11.14
2019-04-03T19:33:40.571Z,11.13
2019-04-03T19:36:10.571Z,11.10
2019-04-03T19:41:20.267Z,11.54
2019-04-03T19:43:50.335Z,11.49
2019-04-03T19:46:22.510Z,11.72
2019-04-03T19:48:50.420Z,11.87
2019-04-03T19:51:20.479Z,11.51
2019-04-03T19:53:59.111Z,11.69
2019-04-03T19:56:22.003Z,11.93
2019-04-03T19:58:52.390Z,12.20
2019-04-03T20:01:23.951Z,11.90
2019-04-03T20:03:52.490Z,11.83
2019-04-03T20:06:23.280Z,11.79
2019-04-03T20:08:52.990Z,11.79
2019-04-03T20:11:23.386Z,11.82
2019-04-03T20:13:53.457Z,11.73
2019-04-03T20:16:24.560Z,12.12
2019-04-03T20:18:56.184Z,11.96
2019-04-03T20:21:23.552Z,11.69
2019-04-03T20:23:53.578Z,11.43
2019-04-03T20:26:23.889Z,11.33
2019-04-03T20:28:56.806Z,11.22
2019-04-03T20:31:23.967Z,11.30
2019-04-03T20:39:12.748Z,10.93
2019-04-03T20:44:22.464Z,10.64
2019-04-03T20:49:33.824Z,10.67
2019-04-03T20:52:02.969Z,10.64
2019-04-03T20:54:33.019Z,10.68
2019-04-03T20:59:43.095Z,10.12
2019-04-03T21:02:12.621Z,9.84
2019-04-03T21:04:42.766Z,9.54
2019-04-03T21:07:13.092Z,9.42
2019-04-03T21:09:43.141Z,9.31
2019-04-03T21:12:13.156Z,9.20
2019-04-03T21:14:43.538Z,8.78
2019-04-03T21:19:53.190Z,8.47
2019-04-03T21:22:23.232Z,8.32
2019-04-03T21:24:53.282Z,8.57
2019-04-03T21:27:23.644Z,8.23
2019-04-03T21:29:53.708Z,8.07
2019-04-03T21:32:23.743Z,7.86
2019-04-03T21:34:53.775Z,8.01
2019-04-03T21:40:05.005Z,7.81
2019-04-03T21:42:33.208Z,7.65
2019-04-03T21:45:07.121Z,7.38
2019-04-03T21:47:33.255Z,7.40
2019-04-03T21:52:42.653Z,7.60
2019-04-03T21:55:12.708Z,7.42
2019-04-03T22:03:01.820Z,6.90
2019-04-03T22:05:32.196Z,7.29
2019-04-03T22:08:02.206Z,6.99
2019-04-03T22:10:33.057Z,6.87
2019-04-03T22:13:02.537Z,6.80
2019-04-03T22:15:32.592Z,6.73
2019-04-03T22:18:02.872Z,6.70
2019-04-03T22:23:12.301Z,6.40
2019-04-03T22:25:42.351Z,6.46
2019-04-03T22:33:31.447Z,6.67
2019-04-03T22:38:40.838Z,6.43
2019-04-03T22:41:12.802Z,6.62
2019-04-03T22:43:41.532Z,6.36
2019-04-03T22:46:11.855Z,6.20
2019-04-03T22:51:21.241Z,6.13
2019-04-03T22:53:51.529Z,5.81
2019-04-03T22:56:21.845Z,5.82
2019-04-03T22:58:52.848Z,5.89
2019-04-03T23:01:22.199Z,5.93
2019-04-03T23:09:10.963Z,5.75
2019-04-03T23:14:20.932Z,5.47
2019-04-03T23:19:32.353Z,5.55
2019-04-03T23:22:00.788Z,5.69
2019-04-03T23:24:31.135Z,5.81
2019-04-03T23:29:40.803Z,5.69
2019-04-03T23:32:10.827Z,5.49
2019-04-03T23:34:42.038Z,5.57
2019-04-03T23:39:50.227Z,5.23
2019-04-03T23:42:20.635Z,5.14
2019-04-03T23:47:30.030Z,5.44
2019-04-03T23:50:00.064Z,5.23
2019-04-03T23:52:30.636Z,5.21
2019-04-03T23:55:00.704Z,5.48
